Meteo Giornale » Osservazioni meteo Gran Bretagna » Boulmer

ore: 15:50 - Osservazioni Meteo Boulmer
Lat. 55° 25' N Lon. 1° 36' W Alt. 23 metri s.l.m.

molto_nuvoloso Europe/London

12 °C

Molto Nuvoloso

Temp. 24 Ore

7 °C

16 °C

Sud-Ovest

37 Km/h

Dew point 7 °C

Umidità 71 %

Visibilità  10 Km

Il sole sorge alle ore 05:41

Il sole tramonta alle ore 20:27

Data e Ora Cielo e Fenomeni T °C DP °C Um. % Pres. hPa Vis. km Vento km/h
Oggi h: 15:50 molto_nuvoloso Molto Nuvoloso 12 7 71 1004 10 SO 37
Oggi h: 14:50 sereno Sereno 14 7 62 1003 10 SO 35.2
Oggi h: 13:50 poco_nuvoloso Poco Nuvoloso 13 7 66 1003 10 SO 25.9
Oggi h: 12:50 molto_nuvoloso Molto Nuvoloso 11 8 81 1004 10 S 14.8
Oggi h: 11:50 coperto_pioggia Pioggia Debole 12 6 66 1004 10 S/SO 16.7
Oggi h: 10:50 molto_nuvoloso Molto Nuvoloso 14 8 67 1004 10 SO 20.3
Oggi h: 09:50 foschia Foschia 16 12 77 1004 8 S 24
Oggi h: 08:50 foschia Foschia 12 11 93 1004 7 SE 11.1
Oggi h: 07:50 foschia Foschia 11 11 100 1004 4 N 3.7
Oggi h: 06:50 foschia Foschia 10 10 100 1005 2 S 9.3
Oggi h: 05:50 foschia Foschia 8 7 93 1005 1 S 7.4
Oggi h: 04:50 foschia Foschia 8 7 93 1006 3 SE 7.4
Oggi h: 03:50 foschia Foschia 8 7 93 1007 3 SE 9.3
Oggi h: 02:50 coperto_pioggia Pioggia 9 8 93 1007 5 N 5.5
Oggi h: 01:50 foschia Foschia 8 7 93 1009 6 S/SE 20.3
Oggi h: 00:50 foschia Foschia 8 7 93 1010 6 S/SE 18.5
Ieri h: 23:50 coperto_pioggia Pioggia Debole 8 8 100 1011 6 SE 16.7
Ieri h: 22:50 foschia Foschia 8 7 93 1012 5 SE 7.4
Ieri h: 21:50 foschia Foschia 7 7 100 1013 6 S/SE 7.4
Ieri h: 20:50 foschia Foschia 8 7 93 1013 9 SE 13
Ieri h: 19:50 sereno Sereno 9 7 87 1014 10 SE 13
Ieri h: 18:50 sereno Sereno 9 8 93 1015 10 S/SE 20.3
Ieri h: 17:50 sereno Sereno 10 8 87 1016 10 S/SE 22.2